sensor_id;sensor_type;location;lat;lon;timestamp;temperature;humidity
3069;DHT22;1545;51.728;8.796;2022-09-12T00:00:21;12.20;98.80
3069;DHT22;1545;51.728;8.796;2022-09-12T00:02:51;12.10;98.80
3069;DHT22;1545;51.728;8.796;2022-09-12T00:05:17;12.10;98.80
3069;DHT22;1545;51.728;8.796;2022-09-12T00:07:43;12.00;98.80
3069;DHT22;1545;51.728;8.796;2022-09-12T00:10:09;12.00;98.80
3069;DHT22;1545;51.728;8.796;2022-09-12T00:12:34;11.90;98.80
3069;DHT22;1545;51.728;8.796;2022-09-12T00:15:00;11.90;98.80
3069;DHT22;1545;51.728;8.796;2022-09-12T00:17:25;11.90;98.80
3069;DHT22;1545;51.728;8.796;2022-09-12T00:19:51;12.00;98.80
3069;DHT22;1545;51.728;8.796;2022-09-12T00:22:16;12.00;98.80
3069;DHT22;1545;51.728;8.796;2022-09-12T00:24:42;11.90;98.80
3069;DHT22;1545;51.728;8.796;2022-09-12T00:27:07;11.80;98.80
3069;DHT22;1545;51.728;8.796;2022-09-12T00:29:33;11.70;98.80
3069;DHT22;1545;51.728;8.796;2022-09-12T00:31:58;11.60;98.80
3069;DHT22;1545;51.728;8.796;2022-09-12T00:34:24;11.60;98.80
3069;DHT22;1545;51.728;8.796;2022-09-12T00:36:49;11.60;98.80
3069;DHT22;1545;51.728;8.796;2022-09-12T00:39:15;11.60;98.80
3069;DHT22;1545;51.728;8.796;2022-09-12T00:41:42;11.60;98.80
3069;DHT22;1545;51.728;8.796;2022-09-12T00:46:42;11.70;98.80
3069;DHT22;1545;51.728;8.796;2022-09-12T00:49:30;11.70;98.80
3069;DHT22;1545;51.728;8.796;2022-09-12T00:52:02;11.70;98.80
3069;DHT22;1545;51.728;8.796;2022-09-12T00:54:44;11.70;98.80
3069;DHT22;1545;51.728;8.796;2022-09-12T00:57:13;11.60;98.80
3069;DHT22;1545;51.728;8.796;2022-09-12T00:59:53;11.50;98.80
3069;DHT22;1545;51.728;8.796;2022-09-12T01:02:20;11.40;98.80
3069;DHT22;1545;51.728;8.796;2022-09-12T01:04:46;11.20;98.80
3069;DHT22;1545;51.728;8.796;2022-09-12T01:07:12;11.00;98.80
3069;DHT22;1545;51.728;8.796;2022-09-12T01:09:41;11.10;98.80
3069;DHT22;1545;51.728;8.796;2022-09-12T01:12:08;11.00;98.80
3069;DHT22;1545;51.728;8.796;2022-09-12T01:14:34;10.90;98.80
3069;DHT22;1545;51.728;8.796;2022-09-12T01:17:00;10.70;98.80
3069;DHT22;1545;51.728;8.796;2022-09-12T01:31:47;11.10;98.80
3069;DHT22;1545;51.728;8.796;2022-09-12T01:34:35;11.00;98.80
3069;DHT22;1545;51.728;8.796;2022-09-12T01:45:46;10.90;98.80
3069;DHT22;1545;51.728;8.796;2022-09-12T01:48:20;10.90;98.80
3069;DHT22;1545;51.728;8.796;2022-09-12T01:50:52;10.70;98.80
3069;DHT22;1545;51.728;8.796;2022-09-12T01:53:27;10.80;98.80
3069;DHT22;1545;51.728;8.796;2022-09-12T01:56:02;10.80;98.80
3069;DHT22;1545;51.728;8.796;2022-09-12T02:01:30;10.90;98.80
3069;DHT22;1545;51.728;8.796;2022-09-12T02:04:05;10.90;98.80
3069;DHT22;1545;51.728;8.796;2022-09-12T02:06:38;11.00;98.80
3069;DHT22;1545;51.728;8.796;2022-09-12T02:09:23;11.00;98.80
3069;DHT22;1545;51.728;8.796;2022-09-12T02:11:52;11.10;98.80
3069;DHT22;1545;51.728;8.796;2022-09-12T02:14:26;11.20;98.80
3069;DHT22;1545;51.728;8.796;2022-09-12T02:16:57;11.20;98.80
3069;DHT22;1545;51.728;8.796;2022-09-12T02:19:27;11.30;98.80
3069;DHT22;1545;51.728;8.796;2022-09-12T02:21:58;11.30;98.80
3069;DHT22;1545;51.728;8.796;2022-09-12T02:24:28;11.30;98.80
3069;DHT22;1545;51.728;8.796;2022-09-12T02:27:11;11.30;98.80
3069;DHT22;1545;51.728;8.796;2022-09-12T02:29:37;11.20;98.80
3069;DHT22;1545;51.728;8.796;2022-09-12T02:40:12;11.20;98.80
3069;DHT22;1545;51.728;8.796;2022-09-12T02:42:38;11.20;98.80
3069;DHT22;1545;51.728;8.796;2022-09-12T02:45:04;11.30;98.80
3069;DHT22;1545;51.728;8.796;2022-09-12T02:47:34;11.30;98.80
3069;DHT22;1545;51.728;8.796;2022-09-12T02:50:01;11.30;98.80
3069;DHT22;1545;51.728;8.796;2022-09-12T02:52:29;11.30;98.80
3069;DHT22;1545;51.728;8.796;2022-09-12T02:54:56;11.30;98.80
3069;DHT22;1545;51.728;8.796;2022-09-12T02:57:23;11.30;98.80
3069;DHT22;1545;51.728;8.796;2022-09-12T02:59:52;11.30;98.80
3069;DHT22;1545;51.728;8.796;2022-09-12T03:02:53;11.30;98.80
3069;DHT22;1545;51.728;8.796;2022-09-12T03:05:33;11.20;98.80
3069;DHT22;1545;51.728;8.796;2022-09-12T03:16:03;11.30;98.80
3069;DHT22;1545;51.728;8.796;2022-09-12T03:18:52;11.30;98.80
3069;DHT22;1545;51.728;8.796;2022-09-12T03:21:32;11.40;98.80
3069;DHT22;1545;51.728;8.796;2022-09-12T03:24:17;11.30;98.80
3069;DHT22;1545;51.728;8.796;2022-09-12T03:29:19;11.20;98.80
3069;DHT22;1545;51.728;8.796;2022-09-12T03:31:56;11.20;98.80
3069;DHT22;1545;51.728;8.796;2022-09-12T03:34:24;11.20;98.80
3069;DHT22;1545;51.728;8.796;2022-09-12T03:36:50;11.20;98.80
3069;DHT22;1545;51.728;8.796;2022-09-12T03:39:16;11.20;98.80
3069;DHT22;1545;51.728;8.796;2022-09-12T03:41:42;11.20;98.80
3069;DHT22;1545;51.728;8.796;2022-09-12T03:44:07;11.20;98.80
3069;DHT22;1545;51.728;8.796;2022-09-12T03:46:33;11.30;98.80
3069;DHT22;1545;51.728;8.796;2022-09-12T03:48:58;11.40;98.80
3069;DHT22;1545;51.728;8.796;2022-09-12T03:51:26;11.40;98.80
3069;DHT22;1545;51.728;8.796;2022-09-12T03:53:53;11.30;98.80
3069;DHT22;1545;51.728;8.796;2022-09-12T03:56:18;11.40;98.80
3069;DHT22;1545;51.728;8.796;2022-09-12T03:58:44;11.40;98.80
3069;DHT22;1545;51.728;8.796;2022-09-12T04:01:14;11.40;98.80
3069;DHT22;1545;51.728;8.796;2022-09-12T04:03:41;11.50;98.80
3069;DHT22;1545;51.728;8.796;2022-09-12T04:06:09;11.50;98.80
3069;DHT22;1545;51.728;8.796;2022-09-12T04:08:35;11.50;98.80
3069;DHT22;1545;51.728;8.796;2022-09-12T04:11:10;11.50;98.80
3069;DHT22;1545;51.728;8.796;2022-09-12T04:13:36;11.50;98.80
3069;DHT22;1545;51.728;8.796;2022-09-12T04:16:06;11.40;98.80
3069;DHT22;1545;51.728;8.796;2022-09-12T04:18:32;11.40;98.80
3069;DHT22;1545;51.728;8.796;2022-09-12T04:20:58;11.40;98.80
3069;DHT22;1545;51.728;8.796;2022-09-12T04:23:23;11.40;98.80
3069;DHT22;1545;51.728;8.796;2022-09-12T04:25:56;11.30;98.80
3069;DHT22;1545;51.728;8.796;2022-09-12T04:28:23;11.20;98.80
3069;DHT22;1545;51.728;8.796;2022-09-12T04:30:49;11.10;98.80
3069;DHT22;1545;51.728;8.796;2022-09-12T04:33:15;11.00;98.80
3069;DHT22;1545;51.728;8.796;2022-09-12T04:35:40;10.90;98.80
3069;DHT22;1545;51.728;8.796;2022-09-12T04:38:07;10.80;98.80
3069;DHT22;1545;51.728;8.796;2022-09-12T04:40:33;10.90;98.80
3069;DHT22;1545;51.728;8.796;2022-09-12T04:42:58;10.90;98.80
3069;DHT22;1545;51.728;8.796;2022-09-12T04:45:24;11.00;98.80
3069;DHT22;1545;51.728;8.796;2022-09-12T04:47:50;11.10;98.80
3069;DHT22;1545;51.728;8.796;2022-09-12T04:50:15;11.20;98.80
3069;DHT22;1545;51.728;8.796;2022-09-12T04:52:41;11.20;98.80
3069;DHT22;1545;51.728;8.796;2022-09-12T04:55:07;11.20;98.80
3069;DHT22;1545;51.728;8.796;2022-09-12T04:57:33;11.20;98.80
3069;DHT22;1545;51.728;8.796;2022-09-12T04:59:59;11.20;98.80
3069;DHT22;1545;51.728;8.796;2022-09-12T05:02:25;11.20;98.80
3069;DHT22;1545;51.728;8.796;2022-09-12T05:04:50;11.20;98.80
3069;DHT22;1545;51.728;8.796;2022-09-12T05:07:17;11.20;98.80
3069;DHT22;1545;51.728;8.796;2022-09-12T05:09:43;11.20;98.80
3069;DHT22;1545;51.728;8.796;2022-09-12T05:12:09;11.20;98.80
3069;DHT22;1545;51.728;8.796;2022-09-12T05:14:34;11.20;98.80
3069;DHT22;1545;51.728;8.796;2022-09-12T05:17:01;11.30;98.80
3069;DHT22;1545;51.728;8.796;2022-09-12T05:19:27;11.30;98.80
3069;DHT22;1545;51.728;8.796;2022-09-12T05:21:53;11.30;98.80
3069;DHT22;1545;51.728;8.796;2022-09-12T05:24:18;11.40;98.80
3069;DHT22;1545;51.728;8.796;2022-09-12T05:26:44;11.50;98.80
3069;DHT22;1545;51.728;8.796;2022-09-12T05:29:09;11.70;98.80
3069;DHT22;1545;51.728;8.796;2022-09-12T05:31:35;12.00;98.80
3069;DHT22;1545;51.728;8.796;2022-09-12T05:34:01;12.20;98.80
3069;DHT22;1545;51.728;8.796;2022-09-12T05:36:34;12.40;98.80
3069;DHT22;1545;51.728;8.796;2022-09-12T05:39:01;12.60;98.80
3069;DHT22;1545;51.728;8.796;2022-09-12T05:41:30;12.80;98.80
3069;DHT22;1545;51.728;8.796;2022-09-12T05:43:58;12.90;98.80
3069;DHT22;1545;51.728;8.796;2022-09-12T05:46:28;13.00;98.80
3069;DHT22;1545;51.728;8.796;2022-09-12T05:48:55;13.30;98.80
3069;DHT22;1545;51.728;8.796;2022-09-12T05:51:23;13.40;98.80
3069;DHT22;1545;51.728;8.796;2022-09-12T05:53:52;13.50;98.80
3069;DHT22;1545;51.728;8.796;2022-09-12T05:56:20;13.60;98.80
3069;DHT22;1545;51.728;8.796;2022-09-12T05:58:51;13.70;98.80
3069;DHT22;1545;51.728;8.796;2022-09-12T06:01:18;13.80;98.80
3069;DHT22;1545;51.728;8.796;2022-09-12T06:03:53;13.80;98.80
3069;DHT22;1545;51.728;8.796;2022-09-12T06:06:21;13.90;98.80
3069;DHT22;1545;51.728;8.796;2022-09-12T06:08:49;14.00;98.80
3069;DHT22;1545;51.728;8.796;2022-09-12T06:11:21;14.10;98.80
3069;DHT22;1545;51.728;8.796;2022-09-12T06:13:54;14.20;98.80
3069;DHT22;1545;51.728;8.796;2022-09-12T06:16:22;14.30;98.80
3069;DHT22;1545;51.728;8.796;2022-09-12T06:18:54;14.30;98.80
3069;DHT22;1545;51.728;8.796;2022-09-12T06:21:20;14.40;98.20
3069;DHT22;1545;51.728;8.796;2022-09-12T06:23:46;14.60;97.80
3069;DHT22;1545;51.728;8.796;2022-09-12T06:26:14;14.70;97.20
3069;DHT22;1545;51.728;8.796;2022-09-12T06:28:42;14.90;96.80
3069;DHT22;1545;51.728;8.796;2022-09-12T06:31:11;15.00;96.50
3069;DHT22;1545;51.728;8.796;2022-09-12T06:33:39;15.10;96.10
3069;DHT22;1545;51.728;8.796;2022-09-12T06:36:15;15.20;95.70
3069;DHT22;1545;51.728;8.796;2022-09-12T06:38:42;15.30;94.70
3069;DHT22;1545;51.728;8.796;2022-09-12T06:41:09;15.40;94.30
3069;DHT22;1545;51.728;8.796;2022-09-12T06:43:37;15.50;93.60
3069;DHT22;1545;51.728;8.796;2022-09-12T06:46:03;15.60;93.40
3069;DHT22;1545;51.728;8.796;2022-09-12T06:48:29;15.70;92.90
3069;DHT22;1545;51.728;8.796;2022-09-12T06:51:00;15.80;92.30
3069;DHT22;1545;51.728;8.796;2022-09-12T06:53:28;15.90;92.30
3069;DHT22;1545;51.728;8.796;2022-09-12T06:55:56;16.00;92.00
3069;DHT22;1545;51.728;8.796;2022-09-12T06:58:21;16.10;91.20
3069;DHT22;1545;51.728;8.796;2022-09-12T07:00:47;16.30;90.70
3069;DHT22;1545;51.728;8.796;2022-09-12T07:03:12;16.40;90.20
3069;DHT22;1545;51.728;8.796;2022-09-12T07:05:38;16.60;89.60
3069;DHT22;1545;51.728;8.796;2022-09-12T07:08:03;16.70;89.50
3069;DHT22;1545;51.728;8.796;2022-09-12T07:10:29;16.80;89.20
3069;DHT22;1545;51.728;8.796;2022-09-12T07:12:55;16.90;89.20
3069;DHT22;1545;51.728;8.796;2022-09-12T07:15:20;17.10;89.30
3069;DHT22;1545;51.728;8.796;2022-09-12T07:17:46;17.30;88.00
3069;DHT22;1545;51.728;8.796;2022-09-12T07:20:11;17.40;87.70
3069;DHT22;1545;51.728;8.796;2022-09-12T07:22:37;17.50;87.00
3069;DHT22;1545;51.728;8.796;2022-09-12T07:25:03;17.60;87.10
3069;DHT22;1545;51.728;8.796;2022-09-12T07:27:29;17.70;86.50
3069;DHT22;1545;51.728;8.796;2022-09-12T07:29:54;17.90;86.10
3069;DHT22;1545;51.728;8.796;2022-09-12T07:32:20;18.10;85.20
3069;DHT22;1545;51.728;8.796;2022-09-12T07:34:47;18.20;84.90
3069;DHT22;1545;51.728;8.796;2022-09-12T07:37:14;18.40;84.60
3069;DHT22;1545;51.728;8.796;2022-09-12T07:39:39;18.60;84.10
3069;DHT22;1545;51.728;8.796;2022-09-12T07:42:05;18.80;83.00
3069;DHT22;1545;51.728;8.796;2022-09-12T07:44:31;18.90;82.70
3069;DHT22;1545;51.728;8.796;2022-09-12T07:46:57;19.10;82.70
3069;DHT22;1545;51.728;8.796;2022-09-12T07:49:22;19.40;80.90
3069;DHT22;1545;51.728;8.796;2022-09-12T07:51:48;19.50;80.00
3069;DHT22;1545;51.728;8.796;2022-09-12T07:54:14;19.70;79.10
3069;DHT22;1545;51.728;8.796;2022-09-12T07:56:40;20.00;78.40
3069;DHT22;1545;51.728;8.796;2022-09-12T07:59:06;20.20;77.50
3069;DHT22;1545;51.728;8.796;2022-09-12T08:01:32;20.20;76.60
3069;DHT22;1545;51.728;8.796;2022-09-12T08:03:59;20.40;76.70
3069;DHT22;1545;51.728;8.796;2022-09-12T08:06:26;20.80;75.60
3069;DHT22;1545;51.728;8.796;2022-09-12T08:08:54;21.40;75.20
3069;DHT22;1545;51.728;8.796;2022-09-12T08:11:21;21.90;74.70
3069;DHT22;1545;51.728;8.796;2022-09-12T08:13:47;22.00;74.60
3069;DHT22;1545;51.728;8.796;2022-09-12T08:16:15;22.50;74.40
3069;DHT22;1545;51.728;8.796;2022-09-12T08:18:42;23.40;72.60
3069;DHT22;1545;51.728;8.796;2022-09-12T08:21:19;23.70;71.70
3069;DHT22;1545;51.728;8.796;2022-09-12T08:23:45;24.30;70.10
3069;DHT22;1545;51.728;8.796;2022-09-12T08:26:11;25.00;67.90
3069;DHT22;1545;51.728;8.796;2022-09-12T08:28:38;25.20;66.90
3069;DHT22;1545;51.728;8.796;2022-09-12T08:31:07;25.40;65.70
3069;DHT22;1545;51.728;8.796;2022-09-12T08:33:33;25.40;66.00
3069;DHT22;1545;51.728;8.796;2022-09-12T08:38:28;25.50;65.30
3069;DHT22;1545;51.728;8.796;2022-09-12T08:41:02;25.50;64.80
3069;DHT22;1545;51.728;8.796;2022-09-12T08:43:59;25.00;66.20
3069;DHT22;1545;51.728;8.796;2022-09-12T08:46:35;24.70;67.10
3069;DHT22;1545;51.728;8.796;2022-09-12T08:49:04;24.70;66.50
3069;DHT22;1545;51.728;8.796;2022-09-12T08:51:33;24.60;67.10
3069;DHT22;1545;51.728;8.796;2022-09-12T08:54:01;24.20;67.50
3069;DHT22;1545;51.728;8.796;2022-09-12T08:56:30;24.00;68.40
3069;DHT22;1545;51.728;8.796;2022-09-12T08:58:59;23.80;68.40
3069;DHT22;1545;51.728;8.796;2022-09-12T09:01:39;23.50;69.10
3069;DHT22;1545;51.728;8.796;2022-09-12T09:04:20;23.20;70.30
3069;DHT22;1545;51.728;8.796;2022-09-12T09:17:57;23.30;69.90
3069;DHT22;1545;51.728;8.796;2022-09-12T09:20:29;23.30;71.20
3069;DHT22;1545;51.728;8.796;2022-09-12T09:29:03;24.20;66.60
3069;DHT22;1545;51.728;8.796;2022-09-12T09:31:14;23.80;67.60
3069;DHT22;1545;51.728;8.796;2022-09-12T09:33:40;23.80;69.20
3069;DHT22;1545;51.728;8.796;2022-09-12T09:36:22;24.00;69.00
3069;DHT22;1545;51.728;8.796;2022-09-12T09:39:05;24.40;67.60
3069;DHT22;1545;51.728;8.796;2022-09-12T09:44:02;24.20;66.60
3069;DHT22;1545;51.728;8.796;2022-09-12T09:46:28;24.10;67.10
3069;DHT22;1545;51.728;8.796;2022-09-12T09:48:54;23.80;69.10
3069;DHT22;1545;51.728;8.796;2022-09-12T09:51:27;24.10;68.40
3069;DHT22;1545;51.728;8.796;2022-09-12T09:54:02;24.20;67.60
3069;DHT22;1545;51.728;8.796;2022-09-12T09:56:35;24.50;67.50
3069;DHT22;1545;51.728;8.796;2022-09-12T09:59:12;24.30;67.20
3069;DHT22;1545;51.728;8.796;2022-09-12T10:04:40;23.90;69.40
3069;DHT22;1545;51.728;8.796;2022-09-12T10:07:16;24.20;69.10
3069;DHT22;1545;51.728;8.796;2022-09-12T10:12:30;24.50;67.40
3069;DHT22;1545;51.728;8.796;2022-09-12T10:15:03;24.60;66.20
3069;DHT22;1545;51.728;8.796;2022-09-12T10:17:31;24.60;66.40
3069;DHT22;1545;51.728;8.796;2022-09-12T10:20:03;24.70;66.00
3069;DHT22;1545;51.728;8.796;2022-09-12T10:22:29;24.50;66.10
3069;DHT22;1545;51.728;8.796;2022-09-12T10:24:59;24.50;67.70
3069;DHT22;1545;51.728;8.796;2022-09-12T10:27:28;24.80;67.10
3069;DHT22;1545;51.728;8.796;2022-09-12T10:30:15;24.90;66.30
3069;DHT22;1545;51.728;8.796;2022-09-12T10:32:45;25.00;64.90
3069;DHT22;1545;51.728;8.796;2022-09-12T10:35:22;25.00;65.30
3069;DHT22;1545;51.728;8.796;2022-09-12T10:38:00;25.10;64.60
3069;DHT22;1545;51.728;8.796;2022-09-12T10:40:29;25.30;65.10
3069;DHT22;1545;51.728;8.796;2022-09-12T10:43:00;25.20;65.60
3069;DHT22;1545;51.728;8.796;2022-09-12T10:45:35;25.20;64.90
3069;DHT22;1545;51.728;8.796;2022-09-12T10:48:21;25.10;65.70
3069;DHT22;1545;51.728;8.796;2022-09-12T10:50:46;24.80;64.80
3069;DHT22;1545;51.728;8.796;2022-09-12T10:53:20;24.60;67.40
3069;DHT22;1545;51.728;8.796;2022-09-12T10:57:00;25.00;66.80
3069;DHT22;1545;51.728;8.796;2022-09-12T10:59:11;25.40;64.40
3069;DHT22;1545;51.728;8.796;2022-09-12T11:01:44;25.60;63.10
3069;DHT22;1545;51.728;8.796;2022-09-12T11:04:44;25.80;62.80
3069;DHT22;1545;51.728;8.796;2022-09-12T11:07:21;25.10;64.70
3069;DHT22;1545;51.728;8.796;2022-09-12T11:10:16;24.60;65.90
3069;DHT22;1545;51.728;8.796;2022-09-12T11:15:42;25.10;61.90
3069;DHT22;1545;51.728;8.796;2022-09-12T11:18:46;24.80;62.30
3069;DHT22;1545;51.728;8.796;2022-09-12T11:27:56;25.70;60.40
3069;DHT22;1545;51.728;8.796;2022-09-12T11:30:24;25.70;59.80
3069;DHT22;1545;51.728;8.796;2022-09-12T11:32:54;25.60;58.90
3069;DHT22;1545;51.728;8.796;2022-09-12T11:35:27;25.70;58.60
3069;DHT22;1545;51.728;8.796;2022-09-12T11:41:07;25.90;58.80
3069;DHT22;1545;51.728;8.796;2022-09-12T11:43:50;25.80;58.60
3069;DHT22;1545;51.728;8.796;2022-09-12T11:51:19;25.10;57.80
3069;DHT22;1545;51.728;8.796;2022-09-12T11:53:55;24.90;60.60
3069;DHT22;1545;51.728;8.796;2022-09-12T11:56:22;24.90;60.20
3069;DHT22;1545;51.728;8.796;2022-09-12T11:58:53;24.90;60.30
3069;DHT22;1545;51.728;8.796;2022-09-12T12:01:24;25.00;59.50
3069;DHT22;1545;51.728;8.796;2022-09-12T12:03:50;25.00;60.20
3069;DHT22;1545;51.728;8.796;2022-09-12T12:06:25;25.00;59.70
3069;DHT22;1545;51.728;8.796;2022-09-12T12:08:53;24.40;62.70
3069;DHT22;1545;51.728;8.796;2022-09-12T12:11:41;24.50;62.70
3069;DHT22;1545;51.728;8.796;2022-09-12T12:14:17;24.60;61.70
3069;DHT22;1545;51.728;8.796;2022-09-12T12:16:44;24.10;63.50
3069;DHT22;1545;51.728;8.796;2022-09-12T12:21:40;24.10;64.70
3069;DHT22;1545;51.728;8.796;2022-09-12T12:34:37;23.90;65.50
3069;DHT22;1545;51.728;8.796;2022-09-12T12:42:21;23.60;65.70
3069;DHT22;1545;51.728;8.796;2022-09-12T12:44:55;23.60;66.90
3069;DHT22;1545;51.728;8.796;2022-09-12T12:47:22;23.80;65.70
3069;DHT22;1545;51.728;8.796;2022-09-12T12:49:56;24.00;66.20
3069;DHT22;1545;51.728;8.796;2022-09-12T12:52:25;24.10;65.30
3069;DHT22;1545;51.728;8.796;2022-09-12T12:54:58;24.10;65.30
3069;DHT22;1545;51.728;8.796;2022-09-12T12:57:28;24.10;66.30
3069;DHT22;1545;51.728;8.796;2022-09-12T13:02:37;24.40;64.90
3069;DHT22;1545;51.728;8.796;2022-09-12T13:05:14;24.40;63.50
3069;DHT22;1545;51.728;8.796;2022-09-12T13:07:42;24.20;64.20
3069;DHT22;1545;51.728;8.796;2022-09-12T13:10:23;24.00;64.60
3069;DHT22;1545;51.728;8.796;2022-09-12T13:12:53;24.00;64.90
3069;DHT22;1545;51.728;8.796;2022-09-12T13:15:46;24.30;65.80
3069;DHT22;1545;51.728;8.796;2022-09-12T13:18:17;24.50;64.40
3069;DHT22;1545;51.728;8.796;2022-09-12T13:20:54;24.70;64.60
3069;DHT22;1545;51.728;8.796;2022-09-12T13:23:28;24.60;61.20
3069;DHT22;1545;51.728;8.796;2022-09-12T13:25:56;24.50;63.00
3069;DHT22;1545;51.728;8.796;2022-09-12T13:28:23;24.60;62.20
3069;DHT22;1545;51.728;8.796;2022-09-12T13:33:52;24.40;61.80
3069;DHT22;1545;51.728;8.796;2022-09-12T13:39:33;23.80;62.80
3069;DHT22;1545;51.728;8.796;2022-09-12T13:44:56;23.60;64.00
3069;DHT22;1545;51.728;8.796;2022-09-12T13:47:33;23.60;63.70
3069;DHT22;1545;51.728;8.796;2022-09-12T13:50:00;23.50;64.60
3069;DHT22;1545;51.728;8.796;2022-09-12T13:52:33;23.30;65.50
3069;DHT22;1545;51.728;8.796;2022-09-12T13:55:00;23.50;65.10
3069;DHT22;1545;51.728;8.796;2022-09-12T13:57:35;23.50;65.30
3069;DHT22;1545;51.728;8.796;2022-09-12T14:00:16;23.50;64.80
3069;DHT22;1545;51.728;8.796;2022-09-12T14:02:45;23.60;64.80
3069;DHT22;1545;51.728;8.796;2022-09-12T14:05:20;23.90;64.90
3069;DHT22;1545;51.728;8.796;2022-09-12T14:07:57;24.10;63.30
3069;DHT22;1545;51.728;8.796;2022-09-12T14:10:34;24.10;63.00
3069;DHT22;1545;51.728;8.796;2022-09-12T14:13:11;24.10;63.50
3069;DHT22;1545;51.728;8.796;2022-09-12T14:15:38;23.90;63.50
3069;DHT22;1545;51.728;8.796;2022-09-12T14:18:24;24.00;63.60
3069;DHT22;1545;51.728;8.796;2022-09-12T14:20:50;24.10;63.50
3069;DHT22;1545;51.728;8.796;2022-09-12T14:23:29;24.20;63.50
3069;DHT22;1545;51.728;8.796;2022-09-12T14:25:57;24.30;63.10
3069;DHT22;1545;51.728;8.796;2022-09-12T14:28:25;24.40;62.90
3069;DHT22;1545;51.728;8.796;2022-09-12T14:33:23;24.10;62.60
3069;DHT22;1545;51.728;8.796;2022-09-12T14:38:50;23.60;62.80
3069;DHT22;1545;51.728;8.796;2022-09-12T14:41:25;23.20;64.30
3069;DHT22;1545;51.728;8.796;2022-09-12T14:43:54;23.20;65.00
3069;DHT22;1545;51.728;8.796;2022-09-12T14:46:33;23.60;64.90
3069;DHT22;1545;51.728;8.796;2022-09-12T14:56:59;23.50;63.10
3069;DHT22;1545;51.728;8.796;2022-09-12T14:59:37;23.70;63.20
3069;DHT22;1545;51.728;8.796;2022-09-12T15:10:05;23.50;63.00
3069;DHT22;1545;51.728;8.796;2022-09-12T15:12:31;23.70;63.40
3069;DHT22;1545;51.728;8.796;2022-09-12T15:15:03;24.00;62.60
3069;DHT22;1545;51.728;8.796;2022-09-12T15:17:31;24.00;61.60
3069;DHT22;1545;51.728;8.796;2022-09-12T15:19:56;24.00;61.80
3069;DHT22;1545;51.728;8.796;2022-09-12T15:22:23;24.00;61.20
3069;DHT22;1545;51.728;8.796;2022-09-12T15:24:49;23.90;61.50
3069;DHT22;1545;51.728;8.796;2022-09-12T15:27:15;23.80;62.50
3069;DHT22;1545;51.728;8.796;2022-09-12T15:29:40;23.90;61.80
3069;DHT22;1545;51.728;8.796;2022-09-12T15:32:12;23.90;61.00
3069;DHT22;1545;51.728;8.796;2022-09-12T15:34:39;23.70;62.50
3069;DHT22;1545;51.728;8.796;2022-09-12T15:37:11;23.80;62.30
3069;DHT22;1545;51.728;8.796;2022-09-12T15:39:38;24.00;62.00
3069;DHT22;1545;51.728;8.796;2022-09-12T15:42:03;24.10;61.80
3069;DHT22;1545;51.728;8.796;2022-09-12T15:44:29;23.90;61.70
3069;DHT22;1545;51.728;8.796;2022-09-12T15:46:54;23.80;61.90
3069;DHT22;1545;51.728;8.796;2022-09-12T15:49:20;23.70;62.10
3069;DHT22;1545;51.728;8.796;2022-09-12T15:51:45;23.50;62.40
3069;DHT22;1545;51.728;8.796;2022-09-12T15:54:13;23.20;64.00
3069;DHT22;1545;51.728;8.796;2022-09-12T15:56:39;23.30;64.90
3069;DHT22;1545;51.728;8.796;2022-09-12T15:59:05;23.30;64.20
3069;DHT22;1545;51.728;8.796;2022-09-12T16:01:30;23.40;64.20
3069;DHT22;1545;51.728;8.796;2022-09-12T16:03:56;23.30;64.10
3069;DHT22;1545;51.728;8.796;2022-09-12T16:06:21;23.20;64.30
3069;DHT22;1545;51.728;8.796;2022-09-12T16:08:47;23.20;64.30
3069;DHT22;1545;51.728;8.796;2022-09-12T16:11:19;23.10;63.70
3069;DHT22;1545;51.728;8.796;2022-09-12T16:13:45;23.10;64.00
3069;DHT22;1545;51.728;8.796;2022-09-12T16:16:10;23.00;63.80
3069;DHT22;1545;51.728;8.796;2022-09-12T16:18:40;23.00;64.90
3069;DHT22;1545;51.728;8.796;2022-09-12T16:21:06;23.00;64.60
3069;DHT22;1545;51.728;8.796;2022-09-12T16:23:32;22.90;64.70
3069;DHT22;1545;51.728;8.796;2022-09-12T16:26:05;22.90;65.30
3069;DHT22;1545;51.728;8.796;2022-09-12T16:28:31;22.90;65.30
3069;DHT22;1545;51.728;8.796;2022-09-12T16:31:02;22.80;65.20
3069;DHT22;1545;51.728;8.796;2022-09-12T16:33:29;22.70;64.80
3069;DHT22;1545;51.728;8.796;2022-09-12T16:36:06;22.60;64.70
3069;DHT22;1545;51.728;8.796;2022-09-12T16:38:33;22.70;64.60
3069;DHT22;1545;51.728;8.796;2022-09-12T16:41:04;22.70;64.80
3069;DHT22;1545;51.728;8.796;2022-09-12T16:43:31;22.60;64.70
3069;DHT22;1545;51.728;8.796;2022-09-12T16:46:04;22.50;65.60
3069;DHT22;1545;51.728;8.796;2022-09-12T16:48:30;22.50;66.00
3069;DHT22;1545;51.728;8.796;2022-09-12T16:50:57;22.40;65.90
3069;DHT22;1545;51.728;8.796;2022-09-12T16:53:24;22.20;66.40
3069;DHT22;1545;51.728;8.796;2022-09-12T16:55:50;22.10;66.40
3069;DHT22;1545;51.728;8.796;2022-09-12T16:58:15;22.00;66.50
3069;DHT22;1545;51.728;8.796;2022-09-12T17:00:41;22.00;66.90
3069;DHT22;1545;51.728;8.796;2022-09-12T17:03:07;21.80;67.50
3069;DHT22;1545;51.728;8.796;2022-09-12T17:05:32;21.70;68.20
3069;DHT22;1545;51.728;8.796;2022-09-12T17:07:58;21.60;68.10
3069;DHT22;1545;51.728;8.796;2022-09-12T17:10:23;21.60;68.00
3069;DHT22;1545;51.728;8.796;2022-09-12T17:12:49;21.60;68.80
3069;DHT22;1545;51.728;8.796;2022-09-12T17:15:15;21.40;68.80
3069;DHT22;1545;51.728;8.796;2022-09-12T17:17:40;21.30;69.00
3069;DHT22;1545;51.728;8.796;2022-09-12T17:20:06;21.20;69.50
3069;DHT22;1545;51.728;8.796;2022-09-12T17:22:32;21.10;69.60
3069;DHT22;1545;51.728;8.796;2022-09-12T17:24:57;21.10;69.90
3069;DHT22;1545;51.728;8.796;2022-09-12T17:27:23;21.00;70.00
3069;DHT22;1545;51.728;8.796;2022-09-12T17:29:48;20.90;70.30
3069;DHT22;1545;51.728;8.796;2022-09-12T17:32:14;20.80;70.70
3069;DHT22;1545;51.728;8.796;2022-09-12T17:34:39;20.80;71.20
3069;DHT22;1545;51.728;8.796;2022-09-12T17:37:05;20.70;71.30
3069;DHT22;1545;51.728;8.796;2022-09-12T17:39:30;20.60;71.80
3069;DHT22;1545;51.728;8.796;2022-09-12T17:41:56;20.50;72.20
3069;DHT22;1545;51.728;8.796;2022-09-12T17:44:23;20.40;72.60
3069;DHT22;1545;51.728;8.796;2022-09-12T17:46:48;20.30;72.80
3069;DHT22;1545;51.728;8.796;2022-09-12T17:49:15;20.20;73.10
3069;DHT22;1545;51.728;8.796;2022-09-12T17:51:43;20.10;73.40
3069;DHT22;1545;51.728;8.796;2022-09-12T17:54:11;20.00;73.70
3069;DHT22;1545;51.728;8.796;2022-09-12T17:56:38;19.90;74.20
3069;DHT22;1545;51.728;8.796;2022-09-12T17:59:06;19.80;74.50
3069;DHT22;1545;51.728;8.796;2022-09-12T18:01:32;19.80;74.70
3069;DHT22;1545;51.728;8.796;2022-09-12T18:04:16;19.70;74.90
3069;DHT22;1545;51.728;8.796;2022-09-12T18:06:42;19.60;75.20
3069;DHT22;1545;51.728;8.796;2022-09-12T18:09:13;19.50;75.60
3069;DHT22;1545;51.728;8.796;2022-09-12T18:11:38;19.50;75.60
3069;DHT22;1545;51.728;8.796;2022-09-12T18:14:04;19.40;75.80
3069;DHT22;1545;51.728;8.796;2022-09-12T18:16:29;19.40;75.70
3069;DHT22;1545;51.728;8.796;2022-09-12T18:18:57;19.40;75.70
3069;DHT22;1545;51.728;8.796;2022-09-12T18:21:26;19.40;75.70
3069;DHT22;1545;51.728;8.796;2022-09-12T18:23:51;19.40;75.80
3069;DHT22;1545;51.728;8.796;2022-09-12T18:26:17;19.30;76.00
3069;DHT22;1545;51.728;8.796;2022-09-12T18:28:43;19.30;76.00
3069;DHT22;1545;51.728;8.796;2022-09-12T18:31:12;19.20;76.10
3069;DHT22;1545;51.728;8.796;2022-09-12T18:33:37;19.20;76.20
3069;DHT22;1545;51.728;8.796;2022-09-12T18:36:04;19.10;76.30
3069;DHT22;1545;51.728;8.796;2022-09-12T18:38:30;19.10;76.30